Time;durP1;ratioP1;P1;durP2;ratioP2;P2;SDS_P1;SDS_P2;PMS_P1;PMS_P2;Temp;Humidity;BMP_temperature;BMP_pressure;BME280_temperature;BME280_humidity;BME280_pressure;Samples;Min_cycle;Max_cycle;Signal;HPM_P1;HPM_P2
2022/05/24 00:00:31;;;;;;;4.75;4.30;;;;;;;;;;5050895;28;20613;-82
2022/05/24 00:02:58;;;;;;;3.53;3.33;;;;;;;;;;5051337;28;20202;-82
2022/05/24 00:05:28;;;;;;;3.35;3.05;;;;;;;;;;5049967;28;20191;-82
2022/05/24 00:07:55;;;;;;;5.13;4.68;;;;;;;;;;5040613;28;20191;-80
2022/05/24 00:10:24;;;;;;;3.83;3.53;;;;;;;;;;5034409;28;20227;-81
2022/05/24 00:12:51;;;;;;;4.22;3.92;;;;;;;;;;5031809;28;20200;-81
2022/05/24 00:15:24;;;;;;;4.38;4.07;;;;;;;;;;5042572;28;20211;-80
2022/05/24 00:17:53;;;;;;;4.45;4.05;;;;;;;;;;5037672;28;20196;-82
2022/05/24 00:20:21;;;;;;;5.82;3.83;;;;;;;;;;5032768;28;20241;-83
2022/05/24 00:22:49;;;;;;;5.53;4.22;;;;;;;;;;5037303;28;20210;-83
2022/05/24 00:25:16;;;;;;;4.35;3.95;;;;;;;;;;5038992;28;20203;-81
2022/05/24 00:27:43;;;;;;;3.47;3.28;;;;;;;;;;5042685;28;20203;-81
2022/05/24 00:30:11;;;;;;;3.72;3.40;;;;;;;;;;5034720;28;20211;-81
2022/05/24 00:32:38;;;;;;;4.10;3.80;;;;;;;;;;5041991;28;20709;-81
2022/05/24 00:35:06;;;;;;;6.47;3.45;;;;;;;;;;5050064;28;20202;-80
2022/05/24 00:37:33;;;;;;;3.40;3.10;;;;;;;;;;5044474;28;20203;-82
2022/05/24 00:40:02;;;;;;;5.20;3.75;;;;;;;;;;5044618;28;20218;-81
2022/05/24 00:42:31;;;;;;;6.03;3.70;;;;;;;;;;5046026;28;20212;-82
2022/05/24 00:45:02;;;;;;;2.95;2.75;;;;;;;;;;5048298;28;20273;-82
2022/05/24 00:47:32;;;;;;;5.05;3.10;;;;;;;;;;5050558;28;20202;-81
2022/05/24 00:50:01;;;;;;;4.45;4.13;;;;;;;;;;5039750;28;20199;-81
2022/05/24 00:52:30;;;;;;;3.53;3.22;;;;;;;;;;5041124;28;20195;-80
2022/05/24 00:55:00;;;;;;;3.85;3.47;;;;;;;;;;5047634;28;20239;-80
2022/05/24 00:57:30;;;;;;;4.00;3.70;;;;;;;;;;5049078;28;20749;-82
2022/05/24 00:59:59;;;;;;;4.55;4.18;;;;;;;;;;5035522;28;20223;-82
2022/05/24 01:02:26;;;;;;;4.85;4.40;;;;;;;;;;5048403;28;20191;-83
2022/05/24 01:04:53;;;;;;;3.88;3.58;;;;;;;;;;5047739;28;20207;-83
2022/05/24 01:07:20;;;;;;;8.80;5.10;;;;;;;;;;5041589;28;20965;-84
2022/05/24 01:09:50;;;;;;;4.57;4.18;;;;;;;;;;5036958;28;20215;-82
2022/05/24 01:12:19;;;;;;;4.75;4.30;;;;;;;;;;5039356;28;20202;-82
2022/05/24 01:14:48;;;;;;;4.63;4.20;;;;;;;;;;5050000;28;20628;-83
2022/05/24 01:17:15;;;;;;;4.32;3.83;;;;;;;;;;5038306;28;20199;-83
2022/05/24 01:19:45;;;;;;;3.55;3.25;;;;;;;;;;5034224;28;20219;-84
2022/05/24 01:22:22;;;;;;;4.20;3.70;;;;;;;;;;5039176;28;20199;-84
2022/05/24 01:24:50;;;;;;;4.63;4.03;;;;;;;;;;5040296;28;20621;-82
2022/05/24 01:27:19;;;;;;;4.00;3.65;;;;;;;;;;5032576;28;20269;-81
2022/05/24 01:29:46;;;;;;;6.35;3.78;;;;;;;;;;5031901;28;20642;-82
2022/05/24 01:37:42;;;;;;;5.10;4.63;;;;;;;;;;5040749;28;20256;-83
2022/05/24 01:40:09;;;;;;;5.18;4.28;;;;;;;;;;5044021;28;20210;-83
2022/05/24 01:42:38;;;;;;;4.22;3.92;;;;;;;;;;5038090;28;21433;-83
2022/05/24 01:45:08;;;;;;;3.30;3.03;;;;;;;;;;5034005;28;20491;-84
2022/05/24 01:47:36;;;;;;;4.10;3.80;;;;;;;;;;5033491;28;20297;-83
2022/05/24 01:50:06;;;;;;;4.25;3.95;;;;;;;;;;5030624;28;20191;-83
2022/05/24 01:52:35;;;;;;;4.53;4.13;;;;;;;;;;5036765;28;20631;-82
2022/05/24 01:55:04;;;;;;;4.45;4.10;;;;;;;;;;5036978;28;20195;-82
2022/05/24 01:57:33;;;;;;;3.42;3.22;;;;;;;;;;5038595;28;20643;-82
2022/05/24 02:00:03;;;;;;;5.00;4.55;;;;;;;;;;5033078;28;20215;-82
2022/05/24 02:02:30;;;;;;;4.82;4.43;;;;;;;;;;5038372;28;20536;-80
2022/05/24 02:04:57;;;;;;;7.78;4.55;;;;;;;;;;5032949;28;20195;-82
2022/05/24 02:07:25;;;;;;;4.78;4.38;;;;;;;;;;5029927;28;20195;-81
2022/05/24 02:09:53;;;;;;;4.82;4.43;;;;;;;;;;5037136;28;20249;-80
2022/05/24 02:12:23;;;;;;;4.78;4.38;;;;;;;;;;5039384;28;20192;-80
2022/05/24 02:14:52;;;;;;;4.50;4.10;;;;;;;;;;5040505;28;20670;-81
2022/05/24 02:17:21;;;;;;;4.05;3.70;;;;;;;;;;5030511;28;20218;-81
2022/05/24 02:19:49;;;;;;;4.75;4.32;;;;;;;;;;5032575;28;20721;-81
2022/05/24 02:22:19;;;;;;;4.00;3.60;;;;;;;;;;5032051;28;20202;-80
2022/05/24 02:24:46;;;;;;;5.47;4.80;;;;;;;;;;5036549;28;20666;-80
2022/05/24 02:27:14;;;;;;;3.90;3.60;;;;;;;;;;5039039;28;20658;-80
2022/05/24 02:29:41;;;;;;;5.35;4.85;;;;;;;;;;5032293;28;20203;-81
2022/05/24 02:32:09;;;;;;;4.43;4.10;;;;;;;;;;5035167;28;20214;-81
2022/05/24 02:34:37;;;;;;;7.55;5.07;;;;;;;;;;5033646;28;20207;-81
2022/05/24 02:37:04;;;;;;;3.92;3.63;;;;;;;;;;5037830;28;20209;-84
2022/05/24 02:41:28;;;;;;;4.70;4.30;;;;;;;;;;5031538;28;20219;-80
2022/05/24 02:42:18;;;;;;;5.30;4.80;;;;;;;;;;5035259;28;20686;-80
2022/05/24 02:44:46;;;;;;;5.70;4.90;;;;;;;;;;5037643;28;20656;-81
2022/05/24 02:47:13;;;;;;;5.25;4.47;;;;;;;;;;5033872;28;20574;-80
2022/05/24 02:49:41;;;;;;;4.25;3.95;;;;;;;;;;5034229;28;20658;-81
2022/05/24 02:52:08;;;;;;;3.50;3.20;;;;;;;;;;5039608;28;20210;-83
2022/05/24 02:54:38;;;;;;;4.50;4.10;;;;;;;;;;5051270;28;20203;-81
2022/05/24 02:57:06;;;;;;;4.65;4.25;;;;;;;;;;5051847;28;20714;-81
2022/05/24 02:59:34;;;;;;;3.70;3.50;;;;;;;;;;5052764;28;20219;-81
2022/05/24 03:02:01;;;;;;;4.70;4.28;;;;;;;;;;5049830;28;20434;-81
2022/05/24 03:04:28;;;;;;;4.50;4.10;;;;;;;;;;5048548;28;20512;-81
2022/05/24 03:09:49;;;;;;;4.28;3.97;;;;;;;;;;5027707;28;20677;-81
2022/05/24 03:15:01;;;;;;;4.20;3.80;;;;;;;;;;5050997;28;20210;-83
2022/05/24 03:17:28;;;;;;;3.72;3.42;;;;;;;;;;5034656;28;20270;-83
2022/05/24 03:19:55;;;;;;;3.75;3.45;;;;;;;;;;5035348;28;20219;-83
2022/05/24 03:22:23;;;;;;;4.72;4.00;;;;;;;;;;5042439;28;20658;-83
2022/05/24 03:24:50;;;;;;;4.78;4.38;;;;;;;;;;5043949;28;20631;-83
2022/05/24 03:27:17;;;;;;;3.95;3.60;;;;;;;;;;5038108;28;20718;-84
2022/05/24 03:29:46;;;;;;;4.50;3.90;;;;;;;;;;5052235;28;20195;-84
2022/05/24 03:32:13;;;;;;;5.60;4.40;;;;;;;;;;5043376;28;20235;-84
2022/05/24 03:34:43;;;;;;;3.78;3.47;;;;;;;;;;5044385;28;20215;-82
2022/05/24 03:37:10;;;;;;;4.25;3.85;;;;;;;;;;5045937;28;20585;-82
2022/05/24 03:39:39;;;;;;;6.15;4.05;;;;;;;;;;5036147;28;20227;-84
2022/05/24 03:42:07;;;;;;;3.30;3.00;;;;;;;;;;5054612;28;20226;-83
2022/05/24 03:44:34;;;;;;;3.83;3.53;;;;;;;;;;5033708;28;20284;-83
2022/05/24 03:47:01;;;;;;;4.45;4.05;;;;;;;;;;5040703;28;20198;-83
2022/05/24 03:49:28;;;;;;;4.25;3.85;;;;;;;;;;5036181;28;20214;-83
2022/05/24 03:51:55;;;;;;;3.55;3.25;;;;;;;;;;5043372;28;20206;-81
2022/05/24 03:54:22;;;;;;;5.05;4.55;;;;;;;;;;5037726;28;20195;-82
2022/05/24 03:59:36;;;;;;;4.65;4.10;;;;;;;;;;5032759;28;20302;-82
2022/05/24 04:02:04;;;;;;;4.18;3.78;;;;;;;;;;5038590;28;20709;-82
2022/05/24 04:04:32;;;;;;;4.10;3.75;;;;;;;;;;5042453;28;20205;-82
2022/05/24 04:06:59;;;;;;;4.03;3.65;;;;;;;;;;5040230;28;20195;-82
2022/05/24 04:09:26;;;;;;;7.43;4.25;;;;;;;;;;5040024;28;20203;-82
2022/05/24 04:11:56;;;;;;;3.85;3.42;;;;;;;;;;5039752;28;20211;-82
2022/05/24 04:14:23;;;;;;;3.85;3.45;;;;;;;;;;5045173;28;20212;-82
2022/05/24 04:16:50;;;;;;;3.55;3.25;;;;;;;;;;5035886;28;20204;-81
2022/05/24 04:19:17;;;;;;;4.43;4.00;;;;;;;;;;5033286;28;20219;-82
2022/05/24 04:21:44;;;;;;;3.85;3.45;;;;;;;;;;5043194;28;20203;-81
2022/05/24 04:24:11;;;;;;;6.75;4.20;;;;;;;;;;5031723;28;21789;-81
2022/05/24 04:26:38;;;;;;;5.00;4.55;;;;;;;;;;5036744;28;20211;-80
2022/05/24 04:29:06;;;;;;;4.50;3.80;;;;;;;;;;5038938;28;20228;-81
2022/05/24 04:31:33;;;;;;;4.35;3.95;;;;;;;;;;5037447;28;20207;-81
2022/05/24 04:34:00;;;;;;;2.85;2.65;;;;;;;;;;5035907;28;20204;-81
2022/05/24 04:36:27;;;;;;;3.30;3.08;;;;;;;;;;5034896;28;20196;-81
2022/05/24 04:38:54;;;;;;;3.90;3.60;;;;;;;;;;5042282;28;20196;-83
2022/05/24 04:44:08;;;;;;;3.63;3.08;;;;;;;;;;5034791;28;20276;-80
2022/05/24 04:49:16;;;;;;;3.83;3.45;;;;;;;;;;5036717;28;20192;-82
2022/05/24 04:51:43;;;;;;;3.17;2.97;;;;;;;;;;5035710;28;20203;-82
2022/05/24 04:54:10;;;;;;;3.53;2.55;;;;;;;;;;5039516;28;20203;-83
2022/05/24 04:56:37;;;;;;;3.33;2.65;;;;;;;;;;5033023;28;20200;-82
2022/05/24 04:59:05;;;;;;;2.92;2.70;;;;;;;;;;5041007;28;20195;-82
2022/05/24 05:01:33;;;;;;;2.78;2.58;;;;;;;;;;5035791;28;20206;-81
2022/05/24 05:04:01;;;;;;;3.42;3.13;;;;;;;;;;5049153;28;20203;-81
2022/05/24 05:06:28;;;;;;;3.08;2.72;;;;;;;;;;5039123;28;20199;-82
2022/05/24 05:08:55;;;;;;;4.72;2.50;;;;;;;;;;5035983;28;20195;-80
2022/05/24 05:11:22;;;;;;;2.42;2.22;;;;;;;;;;5038836;28;20565;-81
2022/05/24 05:13:49;;;;;;;3.75;2.00;;;;;;;;;;5038629;28;20223;-81
2022/05/24 05:16:16;;;;;;;2.67;2.47;;;;;;;;;;5032218;28;20573;-81
2022/05/24 05:18:45;;;;;;;5.40;2.97;;;;;;;;;;5033069;28;20814;-81
2022/05/24 05:21:14;;;;;;;3.33;2.53;;;;;;;;;;5037794;28;20246;-83
2022/05/24 05:23:41;;;;;;;3.20;2.17;;;;;;;;;;5043859;28;20216;-84
2022/05/24 05:26:08;;;;;;;4.50;2.20;;;;;;;;;;5033761;28;20753;-83
2022/05/24 05:28:35;;;;;;;4.32;2.33;;;;;;;;;;5036107;28;20273;-82
2022/05/24 05:31:17;;;;;;;4.32;2.40;;;;;;;;;;5037503;28;20187;-83
2022/05/24 05:33:48;;;;;;;2.35;2.15;;;;;;;;;;5036606;28;20381;-82
2022/05/24 05:36:15;;;;;;;3.80;3.15;;;;;;;;;;5036574;28;20296;-82
2022/05/24 05:38:45;;;;;;;2.35;2.15;;;;;;;;;;5041316;28;20650;-83
2022/05/24 05:41:13;;;;;;;5.38;2.65;;;;;;;;;;5035172;28;20281;-82
2022/05/24 05:43:40;;;;;;;3.65;2.42;;;;;;;;;;5038188;28;20204;-82
2022/05/24 05:46:07;;;;;;;3.20;2.40;;;;;;;;;;5034236;28;20214;-82
2022/05/24 05:48:34;;;;;;;5.65;2.38;;;;;;;;;;5035060;28;20244;-83
2022/05/24 05:51:03;;;;;;;2.45;2.25;;;;;;;;;;5034951;28;20195;-81
2022/05/24 05:53:30;;;;;;;4.03;2.05;;;;;;;;;;5045883;28;20195;-81
2022/05/24 05:55:57;;;;;;;3.25;2.17;;;;;;;;;;5041239;28;20199;-81
2022/05/24 05:58:24;;;;;;;2.70;2.42;;;;;;;;;;5031651;28;20564;-82
2022/05/24 06:00:51;;;;;;;2.83;2.15;;;;;;;;;;5036118;28;20575;-81
2022/05/24 06:03:18;;;;;;;3.92;2.47;;;;;;;;;;5050814;28;20448;-82
2022/05/24 06:05:46;;;;;;;2.88;2.67;;;;;;;;;;5046602;28;20195;-82
2022/05/24 06:08:14;;;;;;;5.90;2.55;;;;;;;;;;5039582;28;20740;-82
2022/05/24 06:10:42;;;;;;;3.42;2.20;;;;;;;;;;5036325;28;20204;-81
2022/05/24 06:13:09;;;;;;;2.60;2.13;;;;;;;;;;5038426;28;20199;-81
2022/05/24 06:15:37;;;;;;;2.30;2.10;;;;;;;;;;5041385;28;20210;-81
2022/05/24 06:18:05;;;;;;;4.85;2.38;;;;;;;;;;5033047;28;20578;-82
2022/05/24 06:20:32;;;;;;;2.20;2.00;;;;;;;;;;5036094;28;20222;-83
2022/05/24 06:23:00;;;;;;;4.25;1.85;;;;;;;;;;5034505;28;20195;-82
2022/05/24 06:25:30;;;;;;;5.18;2.55;;;;;;;;;;5040813;28;20199;-84
2022/05/24 06:27:58;;;;;;;2.22;2.03;;;;;;;;;;5031577;28;20198;-83
2022/05/24 06:30:26;;;;;;;2.92;2.30;;;;;;;;;;5032308;28;20192;-82
2022/05/24 06:32:53;;;;;;;2.22;1.50;;;;;;;;;;5039099;28;20641;-82
2022/05/24 06:35:20;;;;;;;2.97;1.85;;;;;;;;;;5040591;28;20202;-83
2022/05/24 06:37:48;;;;;;;3.05;1.70;;;;;;;;;;5037120;28;20651;-82
2022/05/24 06:40:17;;;;;;;2.40;1.85;;;;;;;;;;5038378;28;20302;-81
2022/05/24 06:42:46;;;;;;;5.03;1.90;;;;;;;;;;5040841;28;20214;-82
2022/05/24 06:45:13;;;;;;;2.40;2.20;;;;;;;;;;5036556;28;20196;-82
2022/05/24 06:47:40;;;;;;;2.45;2.10;;;;;;;;;;5041441;28;20658;-83
2022/05/24 06:50:08;;;;;;;2.30;2.10;;;;;;;;;;5035634;28;20714;-82
2022/05/24 06:52:36;;;;;;;2.15;1.88;;;;;;;;;;5038946;28;20202;-84
2022/05/24 06:55:03;;;;;;;4.82;1.75;;;;;;;;;;5042857;28;20313;-82
2022/05/24 06:57:30;;;;;;;5.85;2.65;;;;;;;;;;5036837;28;20221;-82
2022/05/24 07:02:45;;;;;;;2.65;1.45;;;;;;;;;;5037802;28;20566;-82
2022/05/24 07:05:14;;;;;;;3.38;1.98;;;;;;;;;;5042912;28;20249;-81
2022/05/24 07:07:41;;;;;;;2.92;1.65;;;;;;;;;;5052582;28;20199;-82
2022/05/24 07:10:12;;;;;;;1.90;1.70;;;;;;;;;;5052963;28;20202;-83
2022/05/24 07:12:39;;;;;;;4.97;2.83;;;;;;;;;;5047350;28;20219;-84
2022/05/24 07:15:08;;;;;;;2.67;1.90;;;;;;;;;;5046466;28;20622;-83
2022/05/24 07:17:35;;;;;;;3.20;2.10;;;;;;;;;;5040990;28;20207;-82
2022/05/24 07:20:02;;;;;;;2.53;1.67;;;;;;;;;;5039785;28;20219;-83
2022/05/24 07:22:29;;;;;;;3.35;1.45;;;;;;;;;;5039688;28;20202;-82
2022/05/24 07:24:56;;;;;;;2.97;1.80;;;;;;;;;;5051821;28;21863;-81
2022/05/24 07:27:24;;;;;;;2.42;1.65;;;;;;;;;;5054164;28;20601;-84
2022/05/24 07:29:51;;;;;;;3.55;1.95;;;;;;;;;;5051274;28;20202;-84
2022/05/24 07:32:20;;;;;;;2.47;1.90;;;;;;;;;;5037155;28;20663;-84
2022/05/24 07:34:47;;;;;;;2.85;1.80;;;;;;;;;;5043746;28;20689;-85
2022/05/24 07:37:15;;;;;;;3.80;1.30;;;;;;;;;;5042271;28;20196;-85
2022/05/24 07:39:42;;;;;;;3.40;1.90;;;;;;;;;;5035429;28;20207;-83
2022/05/24 07:47:40;;;;;;;3.15;2.05;;;;;;;;;;5053606;28;20252;-84
2022/05/24 07:50:08;;;;;;;2.50;1.85;;;;;;;;;;5043385;28;20192;-82
2022/05/24 07:52:35;;;;;;;1.83;1.25;;;;;;;;;;5037061;28;20203;-84
2022/05/24 07:55:03;;;;;;;1.90;1.63;;;;;;;;;;5036020;28;20223;-82
2022/05/24 07:57:30;;;;;;;1.77;1.30;;;;;;;;;;5036801;28;20663;-83
2022/05/24 07:59:57;;;;;;;2.30;1.55;;;;;;;;;;5050332;28;20203;-83
2022/05/24 08:02:24;;;;;;;1.98;1.48;;;;;;;;;;5050367;28;20669;-84
2022/05/24 08:04:55;;;;;;;2.63;2.00;;;;;;;;;;5058553;28;20203;-83
2022/05/24 08:07:22;;;;;;;1.65;1.55;;;;;;;;;;5049304;28;20200;-83
2022/05/24 08:09:49;;;;;;;3.35;1.50;;;;;;;;;;5053614;28;20211;-82
2022/05/24 08:12:16;;;;;;;3.35;1.52;;;;;;;;;;5054102;28;20198;-81
2022/05/24 08:14:43;;;;;;;1.80;1.50;;;;;;;;;;5052010;28;20615;-82
2022/05/24 08:17:10;;;;;;;2.75;1.67;;;;;;;;;;5047844;28;20210;-82
2022/05/24 08:19:37;;;;;;;2.90;1.70;;;;;;;;;;5050906;28;20233;-82
2022/05/24 08:22:05;;;;;;;1.63;1.52;;;;;;;;;;5053624;28;20281;-83
2022/05/24 08:24:32;;;;;;;1.92;1.35;;;;;;;;;;5056009;28;20689;-82
2022/05/24 08:27:00;;;;;;;3.58;1.20;;;;;;;;;;5048431;28;20663;-80
2022/05/24 08:29:27;;;;;;;1.85;1.23;;;;;;;;;;5051587;28;20199;-84
2022/05/24 08:31:54;;;;;;;4.90;1.40;;;;;;;;;;5035900;28;20196;-85
2022/05/24 08:34:21;;;;;;;1.75;1.42;;;;;;;;;;5040649;28;20199;-82
2022/05/24 08:36:48;;;;;;;5.00;1.42;;;;;;;;;;5040108;28;20250;-81
2022/05/24 08:39:16;;;;;;;2.50;1.30;;;;;;;;;;5037192;28;20202;-82
2022/05/24 08:41:55;;;;;;;2.40;1.70;;;;;;;;;;5047844;28;20230;-81
2022/05/24 08:49:55;;;;;;;2.30;1.60;;;;;;;;;;5050263;28;20559;-80
2022/05/24 08:52:23;;;;;;;1.73;1.20;;;;;;;;;;5050731;28;20226;-80
2022/05/24 08:54:53;;;;;;;1.80;1.20;;;;;;;;;;5034345;28;20203;-81
2022/05/24 08:57:25;;;;;;;1.40;1.25;;;;;;;;;;5039049;28;20232;-80
2022/05/24 08:59:56;;;;;;;1.95;1.30;;;;;;;;;;5041112;28;20195;-81
2022/05/24 09:02:23;;;;;;;3.33;1.50;;;;;;;;;;5041482;28;20243;-81
2022/05/24 09:04:50;;;;;;;1.65;1.30;;;;;;;;;;5037202;28;20195;-80
2022/05/24 09:07:22;;;;;;;1.75;1.60;;;;;;;;;;5037331;28;20199;-81
2022/05/24 09:09:55;;;;;;;4.22;1.83;;;;;;;;;;5049770;28;20210;-83
2022/05/24 09:12:26;;;;;;;1.40;1.08;;;;;;;;;;5044884;28;20202;-81
2022/05/24 09:15:02;;;;;;;2.00;1.40;;;;;;;;;;5036546;28;20206;-77
2022/05/24 09:17:35;;;;;;;3.83;1.40;;;;;;;;;;5032279;28;20590;-80
2022/05/24 09:20:04;;;;;;;1.40;1.10;;;;;;;;;;5034345;28;20202;-80
2022/05/24 09:22:33;;;;;;;1.65;1.10;;;;;;;;;;5034385;28;20218;-78
2022/05/24 09:25:01;;;;;;;2.88;1.35;;;;;;;;;;5032433;28;20238;-78
2022/05/24 09:27:30;;;;;;;2.20;1.30;;;;;;;;;;5036822;28;20208;-78
2022/05/24 09:29:59;;;;;;;2.30;1.30;;;;;;;;;;5035075;28;20230;-77
2022/05/24 09:32:31;;;;;;;1.60;1.30;;;;;;;;;;5036939;28;21186;-78
2022/05/24 09:35:04;;;;;;;1.50;1.20;;;;;;;;;;5036643;28;20301;-81
2022/05/24 09:37:31;;;;;;;4.07;1.10;;;;;;;;;;5036113;28;21832;-78
2022/05/24 09:39:59;;;;;;;1.95;1.23;;;;;;;;;;5035109;28;20219;-81
2022/05/24 09:42:30;;;;;;;1.70;1.10;;;;;;;;;;5047455;28;20237;-79
2022/05/24 09:44:59;;;;;;;1.73;1.10;;;;;;;;;;5051277;28;20207;-78
2022/05/24 09:47:29;;;;;;;3.05;1.17;;;;;;;;;;5045008;28;20199;-80
2022/05/24 09:50:16;;;;;;;1.10;0.98;;;;;;;;;;5046072;28;20226;-79
2022/05/24 09:52:46;;;;;;;2.92;1.33;;;;;;;;;;5040838;28;20665;-80
2022/05/24 09:55:23;;;;;;;2.05;1.38;;;;;;;;;;5051846;28;20182;-78
2022/05/24 09:57:50;;;;;;;1.85;1.35;;;;;;;;;;5048954;28;20203;-77
2022/05/24 10:00:20;;;;;;;2.25;1.20;;;;;;;;;;5042087;28;20205;-76
2022/05/24 10:02:47;;;;;;;1.73;1.10;;;;;;;;;;5049142;28;20214;-80
2022/05/24 10:05:19;;;;;;;2.05;1.25;;;;;;;;;;5048786;28;20195;-78
2022/05/24 10:07:58;;;;;;;2.17;1.42;;;;;;;;;;5048061;28;20199;-78
2022/05/24 10:10:28;;;;;;;2.97;1.67;;;;;;;;;;5040906;28;20286;-79
2022/05/24 10:12:58;;;;;;;1.50;1.30;;;;;;;;;;5031412;28;20548;-80
2022/05/24 10:15:29;;;;;;;1.60;1.15;;;;;;;;;;5037891;28;20210;-80
2022/05/24 10:18:03;;;;;;;1.67;1.20;;;;;;;;;;5043421;28;20310;-78
2022/05/24 10:20:36;;;;;;;3.72;1.20;;;;;;;;;;5048330;28;20198;-80
2022/05/24 10:23:07;;;;;;;3.58;1.52;;;;;;;;;;5033954;28;20746;-79
2022/05/24 10:25:39;;;;;;;1.80;1.25;;;;;;;;;;5038679;28;20206;-79
2022/05/24 10:28:15;;;;;;;1.70;1.25;;;;;;;;;;5035759;28;20207;-80
2022/05/24 10:30:49;;;;;;;3.60;1.60;;;;;;;;;;5031758;28;20199;-78
2022/05/24 10:39:16;;;;;;;2.03;1.10;;;;;;;;;;5049704;28;20290;-79
2022/05/24 10:41:53;;;;;;;1.40;1.02;;;;;;;;;;5050238;28;20237;-79
2022/05/24 10:44:23;;;;;;;2.88;1.42;;;;;;;;;;5045914;28;20198;-78
2022/05/24 10:46:54;;;;;;;2.47;1.08;;;;;;;;;;5038281;28;20212;-79
2022/05/24 10:49:26;;;;;;;1.77;1.10;;;;;;;;;;5050116;28;20206;-80
2022/05/24 10:51:56;;;;;;;1.20;0.90;;;;;;;;;;5045557;28;20203;-80
2022/05/24 10:54:30;;;;;;;2.22;1.33;;;;;;;;;;5045820;28;20252;-79
2022/05/24 10:57:00;;;;;;;1.30;1.00;;;;;;;;;;5051239;28;20672;-81
2022/05/24 10:59:35;;;;;;;1.42;1.13;;;;;;;;;;5035027;28;20200;-79
2022/05/24 11:02:10;;;;;;;1.00;0.80;;;;;;;;;;5042139;28;20286;-81
2022/05/24 11:04:42;;;;;;;2.38;1.02;;;;;;;;;;5039954;28;20213;-80
2022/05/24 11:07:14;;;;;;;3.90;1.23;;;;;;;;;;5040655;28;20199;-80
2022/05/24 11:09:43;;;;;;;1.58;1.00;;;;;;;;;;5036102;28;20204;-79
2022/05/24 11:12:18;;;;;;;1.38;1.27;;;;;;;;;;5045135;28;20196;-84
2022/05/24 11:14:48;;;;;;;1.40;0.82;;;;;;;;;;5045007;28;20210;-80
2022/05/24 11:17:17;;;;;;;1.20;1.10;;;;;;;;;;5049788;28;20229;-83
2022/05/24 11:19:47;;;;;;;1.80;1.30;;;;;;;;;;5046569;28;20203;-82
2022/05/24 11:22:20;;;;;;;2.60;1.10;;;;;;;;;;5044427;28;20276;-81
2022/05/24 11:24:49;;;;;;;1.60;1.20;;;;;;;;;;5047141;28;20930;-82
2022/05/24 11:27:24;;;;;;;1.60;1.00;;;;;;;;;;5033096;28;20223;-82
2022/05/24 11:29:52;;;;;;;1.40;1.05;;;;;;;;;;5044312;28;20196;-82
2022/05/24 11:32:30;;;;;;;5.22;1.20;;;;;;;;;;5043418;28;20195;-81
2022/05/24 11:35:00;;;;;;;1.55;1.10;;;;;;;;;;5047000;28;20618;-80
2022/05/24 11:37:29;;;;;;;1.13;0.80;;;;;;;;;;5049192;28;20650;-78
2022/05/24 11:39:58;;;;;;;3.38;1.50;;;;;;;;;;5048108;28;20563;-80
2022/05/24 11:42:32;;;;;;;1.60;1.10;;;;;;;;;;5041345;28;20301;-80
2022/05/24 11:44:59;;;;;;;0.90;0.70;;;;;;;;;;5039930;28;20241;-79
2022/05/24 11:47:47;;;;;;;1.25;0.80;;;;;;;;;;5044080;28;20200;-80
2022/05/24 11:50:35;;;;;;;1.88;1.10;;;;;;;;;;5037462;28;20199;-80
2022/05/24 11:53:03;;;;;;;3.17;1.00;;;;;;;;;;5044648;28;20637;-79
2022/05/24 11:55:47;;;;;;;2.30;1.10;;;;;;;;;;5056150;28;20248;-80
2022/05/24 11:58:38;;;;;;;1.95;0.90;;;;;;;;;;5048159;28;20539;-79
2022/05/24 12:01:08;;;;;;;1.35;0.90;;;;;;;;;;5047955;28;20209;-80
2022/05/24 12:09:23;;;;;;;1.60;0.90;;;;;;;;;;5007612;28;20230;-78
2022/05/24 12:12:10;;;;;;;1.35;1.00;;;;;;;;;;5029119;28;20203;-78
2022/05/24 12:14:38;;;;;;;2.05;1.00;;;;;;;;;;5046788;28;20684;-80
2022/05/24 12:17:14;;;;;;;2.38;1.38;;;;;;;;;;5042037;28;20199;-80
2022/05/24 12:19:43;;;;;;;6.47;1.10;;;;;;;;;;5044181;28;20289;-77
2022/05/24 12:22:11;;;;;;;1.27;1.00;;;;;;;;;;5047699;28;20220;-77
2022/05/24 12:24:49;;;;;;;2.40;0.90;;;;;;;;;;5049609;28;20203;-80
2022/05/24 12:27:18;;;;;;;1.13;0.90;;;;;;;;;;5046997;28;20230;-78
2022/05/24 12:29:46;;;;;;;1.70;1.08;;;;;;;;;;5047706;28;20207;-79
2022/05/24 12:32:16;;;;;;;3.05;1.00;;;;;;;;;;5039916;28;20210;-80
2022/05/24 12:34:43;;;;;;;1.38;1.23;;;;;;;;;;5047202;28;20664;-78
2022/05/24 12:37:14;;;;;;;3.67;1.20;;;;;;;;;;5044869;28;20206;-79
2022/05/24 12:39:41;;;;;;;1.27;0.95;;;;;;;;;;5050269;28;20211;-80
2022/05/24 12:42:12;;;;;;;1.33;1.23;;;;;;;;;;5048932;28;20222;-83
2022/05/24 12:44:41;;;;;;;3.08;0.95;;;;;;;;;;5045273;28;20547;-82
2022/05/24 12:47:16;;;;;;;1.58;1.00;;;;;;;;;;5048916;28;20201;-81
2022/05/24 12:49:54;;;;;;;1.65;1.13;;;;;;;;;;5050072;28;20670;-80
2022/05/24 12:52:22;;;;;;;1.75;0.80;;;;;;;;;;5045142;28;20191;-81
2022/05/24 12:54:51;;;;;;;1.65;1.10;;;;;;;;;;5042422;28;20243;-82
2022/05/24 12:57:19;;;;;;;1.65;0.98;;;;;;;;;;5046016;28;20195;-81
2022/05/24 12:59:52;;;;;;;4.35;1.25;;;;;;;;;;5041208;28;20654;-81
2022/05/24 13:02:24;;;;;;;1.40;0.90;;;;;;;;;;5044462;28;20296;-81
2022/05/24 13:04:51;;;;;;;3.25;0.95;;;;;;;;;;5047008;28;20202;-82
2022/05/24 13:07:25;;;;;;;0.90;0.70;;;;;;;;;;5045242;28;20560;-81
2022/05/24 13:09:52;;;;;;;1.38;0.95;;;;;;;;;;5048189;28;20306;-80
2022/05/24 13:12:19;;;;;;;1.00;0.80;;;;;;;;;;5043420;28;20196;-81
2022/05/24 13:14:48;;;;;;;2.63;1.38;;;;;;;;;;5046546;28;20268;-81
2022/05/24 13:17:17;;;;;;;0.90;0.70;;;;;;;;;;5043486;28;20673;-81
2022/05/24 13:19:54;;;;;;;2.45;0.90;;;;;;;;;;5042606;28;20289;-82
2022/05/24 13:22:21;;;;;;;1.00;0.90;;;;;;;;;;5046675;28;20578;-81
2022/05/24 13:24:49;;;;;;;1.65;1.02;;;;;;;;;;5039525;28;20208;-78
2022/05/24 13:27:16;;;;;;;0.95;0.75;;;;;;;;;;5045934;28;20206;-80
2022/05/24 13:35:10;;;;;;;1.10;1.00;;;;;;;;;;5040774;28;20252;-79
2022/05/24 13:37:55;;;;;;;2.03;1.20;;;;;;;;;;5053800;28;20205;-80
2022/05/24 13:40:35;;;;;;;1.27;0.90;;;;;;;;;;5044056;28;20647;-80
2022/05/24 13:43:03;;;;;;;1.10;0.80;;;;;;;;;;5041941;28;20230;-79
2022/05/24 13:45:30;;;;;;;1.45;0.88;;;;;;;;;;5047583;28;20631;-79
2022/05/24 13:47:58;;;;;;;1.10;0.80;;;;;;;;;;5043598;28;20202;-78
2022/05/24 13:50:36;;;;;;;1.80;0.98;;;;;;;;;;5043534;28;20658;-77
2022/05/24 13:53:05;;;;;;;1.90;1.00;;;;;;;;;;5037595;28;20195;-80
2022/05/24 13:55:33;;;;;;;1.50;1.20;;;;;;;;;;5040140;28;20203;-78
2022/05/24 13:58:04;;;;;;;1.98;0.85;;;;;;;;;;5049081;28;20554;-79
2022/05/24 14:00:40;;;;;;;1.20;0.90;;;;;;;;;;5045511;28;20210;-80
2022/05/24 14:03:13;;;;;;;1.40;0.90;;;;;;;;;;5043615;28;20673;-79
2022/05/24 14:05:41;;;;;;;1.30;1.10;;;;;;;;;;5035663;28;20207;-79
2022/05/24 14:08:09;;;;;;;1.70;1.08;;;;;;;;;;5048380;28;20203;-80
2022/05/24 14:10:37;;;;;;;1.52;0.90;;;;;;;;;;5048334;28;20198;-78
2022/05/24 14:13:07;;;;;;;1.10;1.00;;;;;;;;;;5040278;28;20214;-79
2022/05/24 14:15:34;;;;;;;1.27;0.90;;;;;;;;;;5043767;28;20302;-79
2022/05/24 14:18:03;;;;;;;1.80;0.80;;;;;;;;;;5043397;28;20198;-78
2022/05/24 14:20:30;;;;;;;1.23;0.80;;;;;;;;;;5048719;28;20598;-79
2022/05/24 14:22:59;;;;;;;2.10;0.85;;;;;;;;;;5047473;28;20723;-79
2022/05/24 14:25:26;;;;;;;1.10;0.95;;;;;;;;;;5044344;28;20202;-79
2022/05/24 14:27:53;;;;;;;1.20;0.80;;;;;;;;;;5041523;28;20199;-79
2022/05/24 14:30:20;;;;;;;1.10;0.90;;;;;;;;;;5049990;28;20661;-78
2022/05/24 14:32:47;;;;;;;1.75;0.73;;;;;;;;;;5045844;28;20649;-80
2022/05/24 14:35:14;;;;;;;2.97;1.27;;;;;;;;;;5062006;28;20685;-80
2022/05/24 14:37:41;;;;;;;1.25;0.82;;;;;;;;;;5051029;28;20676;-79
2022/05/24 14:40:12;;;;;;;1.30;1.15;;;;;;;;;;5043888;28;20205;-79
2022/05/24 14:42:42;;;;;;;1.20;0.85;;;;;;;;;;5046047;28;20222;-81
2022/05/24 14:45:10;;;;;;;1.13;0.90;;;;;;;;;;5056400;28;20213;-81
2022/05/24 14:47:37;;;;;;;1.02;0.88;;;;;;;;;;5049879;28;20199;-81
2022/05/24 14:50:05;;;;;;;1.42;1.13;;;;;;;;;;5049539;28;20202;-81
2022/05/24 14:52:35;;;;;;;1.67;0.90;;;;;;;;;;5053062;28;20814;-81
2022/05/24 14:55:02;;;;;;;1.00;0.88;;;;;;;;;;5052601;28;20651;-81
2022/05/24 14:57:30;;;;;;;1.02;0.77;;;;;;;;;;5048623;28;20202;-81
2022/05/24 14:59:57;;;;;;;1.10;0.90;;;;;;;;;;5054086;28;20554;-82
2022/05/24 15:02:24;;;;;;;1.33;0.80;;;;;;;;;;5055362;28;20214;-81
2022/05/24 15:04:51;;;;;;;1.10;0.90;;;;;;;;;;5053295;28;20199;-82
2022/05/24 15:15:48;;;;;;;1.00;0.80;;;;;;;;;;4967567;28;20565;-81
2022/05/24 15:18:15;;;;;;;1.02;0.80;;;;;;;;;;5032779;28;20654;-80
2022/05/24 15:20:43;;;;;;;1.45;1.17;;;;;;;;;;5051341;28;20666;-81
2022/05/24 15:23:13;;;;;;;0.90;0.70;;;;;;;;;;5050449;28;20711;-82
2022/05/24 15:25:42;;;;;;;2.47;0.90;;;;;;;;;;5055370;28;20205;-81
2022/05/24 15:28:12;;;;;;;1.20;1.10;;;;;;;;;;5046694;28;20210;-82
2022/05/24 15:30:40;;;;;;;1.10;0.93;;;;;;;;;;5047732;28;20202;-82
2022/05/24 15:33:07;;;;;;;1.52;0.80;;;;;;;;;;5051267;28;20195;-82
2022/05/24 15:35:35;;;;;;;0.90;0.70;;;;;;;;;;5048016;28;20239;-81
2022/05/24 15:38:02;;;;;;;1.02;0.77;;;;;;;;;;5051632;28;20201;-82
2022/05/24 15:40:29;;;;;;;1.20;1.00;;;;;;;;;;5052290;28;20210;-82
2022/05/24 15:42:57;;;;;;;1.42;0.88;;;;;;;;;;5051582;28;20269;-82
2022/05/24 15:45:26;;;;;;;1.10;0.80;;;;;;;;;;5044279;28;20229;-81
2022/05/24 15:47:53;;;;;;;1.00;0.80;;;;;;;;;;5044930;28;20558;-80
2022/05/24 15:50:20;;;;;;;1.20;0.80;;;;;;;;;;5037387;28;20207;-82
2022/05/24 15:52:48;;;;;;;1.00;0.70;;;;;;;;;;5049056;28;20222;-83